createdAt,value
2017-06-01T00:02:27.000Z,30.176
2017-06-01T00:22:27.000Z,30.247
2017-06-01T00:42:27.000Z,30.185
2017-06-01T00:52:27.000Z,30.446
2017-06-01T01:02:27.000Z,30.755
2017-06-01T01:22:27.000Z,30.916
2017-06-01T01:42:27.000Z,31.063
2017-06-01T01:52:27.000Z,31.19
2017-06-01T02:02:27.000Z,31.2
2017-06-01T03:02:33.000Z,32.061
2017-06-01T03:12:29.000Z,32.135
2017-06-01T03:22:29.000Z,32.219
2017-06-01T03:32:29.000Z,32.414
2017-06-01T03:42:29.000Z,32.512
2017-06-01T03:52:29.000Z,32.664
2017-06-01T04:02:29.000Z,32.727
2017-06-01T04:12:29.000Z,32.824
2017-06-01T04:22:29.000Z,32.922
2017-06-01T04:32:29.000Z,32.965
2017-06-01T04:42:29.000Z,32.946
2017-06-01T04:52:29.000Z,32.902
2017-06-01T05:02:29.000Z,32.925
2017-06-01T05:12:29.000Z,32.775
2017-06-01T05:22:29.000Z,32.767
2017-06-01T05:32:29.000Z,32.889
2017-06-01T05:42:29.000Z,32.905
2017-06-01T05:52:29.000Z,32.896
2017-06-01T06:02:29.000Z,33.025
2017-06-01T06:12:29.000Z,33.05
2017-06-01T06:22:29.000Z,33.261
2017-06-01T06:32:29.000Z,33.066
2017-06-01T06:42:29.000Z,32.969
2017-06-01T06:52:29.000Z,33.121
2017-06-01T07:02:29.000Z,33.26
2017-06-01T07:12:29.000Z,33.287
2017-06-01T07:22:29.000Z,33.15
2017-06-01T07:32:29.000Z,33.377
2017-06-01T07:42:29.000Z,33.158
2017-06-01T07:52:29.000Z,32.801
2017-06-01T08:02:29.000Z,32.598
2017-06-01T08:12:30.000Z,32.429
2017-06-01T08:22:29.000Z,32.456
2017-06-01T08:32:30.000Z,32.44
2017-06-01T08:42:30.000Z,32.478
2017-06-01T08:52:30.000Z,32.529
2017-06-01T09:02:30.000Z,31.955
2017-06-01T09:12:30.000Z,31.583
2017-06-01T09:22:30.000Z,31.315
2017-06-01T09:32:30.000Z,31.198
2017-06-01T09:42:30.000Z,31.305
2017-06-01T09:52:30.000Z,30.793
2017-06-01T10:02:30.000Z,30.974
2017-06-01T10:12:30.000Z,29.989
2017-06-01T10:22:30.000Z,30.744
2017-06-01T10:32:30.000Z,30.22
2017-06-01T10:42:30.000Z,30.293
2017-06-01T10:52:30.000Z,30.051
2017-06-01T11:02:30.000Z,29.897
2017-06-01T11:12:30.000Z,29.844
2017-06-01T11:22:30.000Z,29.594
2017-06-01T11:32:30.000Z,29.81
2017-06-01T11:42:30.000Z,29.013
2017-06-01T11:52:30.000Z,29.026
2017-06-01T12:02:30.000Z,29.349
2017-06-01T12:12:30.000Z,28.438
2017-06-01T12:22:30.000Z,28.431
2017-06-01T12:32:30.000Z,29.316
2017-06-01T12:42:30.000Z,28.818
2017-06-01T12:52:30.000Z,29.252
2017-06-01T13:02:30.000Z,28.955
2017-06-01T13:12:30.000Z,29.606
2017-06-01T13:22:30.000Z,29.62
2017-06-01T13:32:30.000Z,29.76
2017-06-01T13:42:30.000Z,29.358
2017-06-01T13:52:32.000Z,29.536
2017-06-01T14:02:30.000Z,29.747
2017-06-01T14:12:30.000Z,29.63
2017-06-01T14:32:30.000Z,28.504
2017-06-01T14:42:30.000Z,29.391
2017-06-01T14:52:30.000Z,29.172
2017-06-01T15:02:30.000Z,29.287
2017-06-01T15:12:30.000Z,29.342
2017-06-01T15:22:30.000Z,28.914
2017-06-01T15:32:30.000Z,29.555
2017-06-01T15:42:30.000Z,29.805
2017-06-01T15:52:31.000Z,29.965
2017-06-01T16:02:30.000Z,29.947
2017-06-01T16:12:30.000Z,29.109
2017-06-01T16:22:30.000Z,29.223
2017-06-01T16:32:30.000Z,29.357
2017-06-01T16:42:31.000Z,29.675
2017-06-01T16:52:31.000Z,29.554
2017-06-01T17:02:31.000Z,29.22
2017-06-01T17:12:31.000Z,28.757
2017-06-01T17:22:31.000Z,29.343
2017-06-01T17:32:31.000Z,30.12
2017-06-01T17:42:31.000Z,30.202
2017-06-01T17:52:31.000Z,30.112
2017-06-01T18:02:31.000Z,30.378
2017-06-01T18:12:31.000Z,31.054
2017-06-01T18:22:31.000Z,32.285
2017-06-01T18:32:31.000Z,32.242
2017-06-01T18:42:31.000Z,31.691
2017-06-01T18:52:31.000Z,31.352
2017-06-01T19:02:31.000Z,32.135
2017-06-01T19:12:31.000Z,31.88
2017-06-01T19:22:31.000Z,32.052
2017-06-01T19:32:31.000Z,32.119
2017-06-01T19:42:31.000Z,32.291
2017-06-01T19:52:31.000Z,32.169
2017-06-01T20:02:32.000Z,32.258
2017-06-01T20:12:31.000Z,32.791
2017-06-01T20:22:31.000Z,32.448
2017-06-01T20:32:31.000Z,32.401
2017-06-01T20:42:31.000Z,32.669
2017-06-01T20:52:31.000Z,32.868
2017-06-01T21:02:31.000Z,33.035
2017-06-01T21:12:31.000Z,33.776
2017-06-01T21:22:31.000Z,34.198
2017-06-01T21:32:31.000Z,33.797
2017-06-01T21:42:31.000Z,33.683
2017-06-01T21:52:31.000Z,33.475
2017-06-01T22:02:31.000Z,33.506
2017-06-01T22:12:31.000Z,33.494
2017-06-01T22:22:31.000Z,33.601
2017-06-01T22:32:31.000Z,33.787
2017-06-01T22:42:31.000Z,34.002
2017-06-01T22:52:31.000Z,34.035
2017-06-01T23:02:31.000Z,34.174
2017-06-01T23:12:31.000Z,34.226
2017-06-01T23:22:31.000Z,34.454
2017-06-01T23:32:31.000Z,34.506
2017-06-01T23:42:31.000Z,34.602
2017-06-01T23:52:31.000Z,34.742
